Time;durP1;ratioP1;P1;durP2;ratioP2;P2;SDS_P1;SDS_P2;PMS_P1;PMS_P2;Temp;Humidity;BMP_temperature;BMP_pressure;BME280_temperature;BME280_humidity;BME280_pressure;Samples;Min_cycle;Max_cycle;Signal;HPM_P1;HPM_P2
2024/03/31 00:00:18;;;;;;;21.58;15.98;;;10.90;99.90;;;;;;5025389;28;20029;-76
2024/03/31 00:02:44;;;;;;;22.67;17.02;;;10.80;99.90;;;;;;5023527;28;20075;-76
2024/03/31 00:05:09;;;;;;;24.45;16.17;;;10.70;99.90;;;;;;5025270;28;20052;-77
2024/03/31 00:07:35;;;;;;;22.13;15.68;;;10.70;99.90;;;;;;5026122;28;20025;-76
2024/03/31 00:10:02;;;;;;;20.58;14.45;;;10.60;99.90;;;;;;5025316;28;20025;-77
2024/03/31 00:12:28;;;;;;;21.80;15.82;;;10.60;99.90;;;;;;5025232;28;20088;-77
2024/03/31 00:14:54;;;;;;;20.10;15.63;;;10.60;99.90;;;;;;5025179;28;20029;-76
2024/03/31 00:17:20;;;;;;;23.73;16.20;;;10.60;99.90;;;;;;5024361;28;20037;-76
2024/03/31 00:19:46;;;;;;;19.48;13.48;;;10.60;99.90;;;;;;5025230;28;20116;-76
2024/03/31 00:22:11;;;;;;;17.15;12.07;;;10.50;99.90;;;;;;5024338;28;20087;-76
2024/03/31 00:24:37;;;;;;;18.25;12.63;;;10.50;99.90;;;;;;5025062;28;20033;-76
2024/03/31 00:27:04;;;;;;;17.90;11.88;;;10.40;99.90;;;;;;5024614;28;20076;-76
2024/03/31 00:29:29;;;;;;;16.55;12.32;;;10.40;99.90;;;;;;5025739;28;20561;-76
2024/03/31 00:31:55;;;;;;;19.45;12.60;;;10.40;99.90;;;;;;5024744;28;20022;-76
2024/03/31 00:34:24;;;;;;;19.30;14.95;;;10.40;99.90;;;;;;5025000;28;20056;-76
2024/03/31 00:36:49;;;;;;;22.77;16.17;;;10.40;99.90;;;;;;5024950;28;20459;-76
2024/03/31 00:39:16;;;;;;;18.48;13.25;;;10.40;99.90;;;;;;5027143;28;20485;-76
2024/03/31 00:41:42;;;;;;;15.02;10.93;;;10.30;99.90;;;;;;5027535;28;20091;-76
2024/03/31 00:44:07;;;;;;;21.63;14.93;;;10.30;99.90;;;;;;5027004;28;20486;-76
2024/03/31 00:46:33;;;;;;;23.02;14.18;;;10.30;99.90;;;;;;5028811;28;20464;-76
2024/03/31 00:48:59;;;;;;;27.27;15.75;;;10.30;99.90;;;;;;5027968;28;20037;-76
2024/03/31 00:51:25;;;;;;;27.52;18.15;;;10.30;99.90;;;;;;5027254;28;20052;-76
2024/03/31 00:53:51;;;;;;;24.77;15.77;;;10.30;99.90;;;;;;5026687;28;20462;-75
2024/03/31 00:56:16;;;;;;;29.92;17.75;;;10.30;99.90;;;;;;5028610;28;20445;-75
2024/03/31 00:58:43;;;;;;;27.20;18.45;;;10.30;99.90;;;;;;5028894;28;20052;-75
2024/03/31 01:01:09;;;;;;;30.00;19.52;;;10.30;99.90;;;;;;5026264;28;21524;-75
2024/03/31 01:03:35;;;;;;;31.08;19.83;;;10.30;99.90;;;;;;5027370;28;20040;-75
2024/03/31 01:06:21;;;;;;;32.47;19.95;;;10.40;99.90;;;;;;5026099;28;20026;-75
2024/03/31 01:08:50;;;;;;;23.50;16.77;;;10.30;99.90;;;;;;5026578;28;20025;-76
2024/03/31 01:11:17;;;;;;;23.52;15.40;;;10.20;99.90;;;;;;5028214;28;20018;-75
2024/03/31 01:13:43;;;;;;;21.58;15.40;;;10.20;99.90;;;;;;5027873;28;20482;-74
2024/03/31 01:16:09;;;;;;;22.20;15.50;;;10.20;99.90;;;;;;5027593;28;20017;-75
2024/03/31 01:18:35;;;;;;;23.15;15.75;;;10.20;99.90;;;;;;5028652;28;20013;-75
2024/03/31 01:21:01;;;;;;;21.90;16.52;;;10.20;99.90;;;;;;5027612;28;20494;-75
2024/03/31 01:23:38;;;;;;;20.65;15.13;;;10.20;99.90;;;;;;5026691;28;20049;-75
2024/03/31 01:26:04;;;;;;;21.65;16.00;;;10.20;99.90;;;;;;5026764;28;20064;-75
2024/03/31 01:28:32;;;;;;;24.08;16.02;;;10.20;99.90;;;;;;5028273;28;20061;-75
2024/03/31 01:30:58;;;;;;;19.92;14.82;;;10.20;99.90;;;;;;5028016;28;20021;-76
2024/03/31 01:33:24;;;;;;;31.95;17.60;;;10.10;99.90;;;;;;5027398;28;20037;-74
2024/03/31 01:35:50;;;;;;;24.33;17.60;;;10.20;99.90;;;;;;5027796;28;20100;-75
2024/03/31 01:38:16;;;;;;;24.42;17.73;;;10.20;99.90;;;;;;5027444;28;20032;-75
2024/03/31 01:40:41;;;;;;;28.60;17.10;;;10.10;99.90;;;;;;5027184;28;20055;-74
2024/03/31 01:43:07;;;;;;;27.08;16.00;;;10.10;99.90;;;;;;5026772;28;20033;-75
2024/03/31 01:45:33;;;;;;;23.05;15.43;;;10.10;99.90;;;;;;5023806;28;20374;-75
2024/03/31 01:47:59;;;;;;;22.25;15.18;;;10.10;99.90;;;;;;5027859;28;20125;-75
2024/03/31 01:50:24;;;;;;;26.45;16.35;;;10.10;99.90;;;;;;5025564;28;20036;-76
2024/03/31 01:52:51;;;;;;;23.38;17.00;;;10.10;99.90;;;;;;5026469;28;20367;-75
2024/03/31 01:55:16;;;;;;;24.83;16.98;;;10.10;99.90;;;;;;5027748;28;20079;-75
2024/03/31 01:57:42;;;;;;;25.95;18.08;;;10.10;99.90;;;;;;5026247;28;20029;-74
2024/03/31 02:00:09;;;;;;;28.00;17.42;;;10.10;99.90;;;;;;5027502;28;20100;-75
2024/03/31 02:02:34;;;;;;;24.40;17.75;;;10.10;99.90;;;;;;5025747;28;20422;-75
2024/03/31 02:05:00;;;;;;;31.70;16.60;;;10.10;99.90;;;;;;5026944;28;20029;-76
2024/03/31 02:07:26;;;;;;;22.60;16.38;;;10.10;99.90;;;;;;5027328;28;20048;-76
2024/03/31 02:09:52;;;;;;;22.63;16.23;;;10.10;99.90;;;;;;5026574;28;20076;-75
2024/03/31 02:12:18;;;;;;;24.42;16.80;;;10.10;99.90;;;;;;5027768;28;20052;-76
2024/03/31 02:14:43;;;;;;;28.25;18.88;;;10.10;99.90;;;;;;5028113;28;20112;-74
2024/03/31 02:17:09;;;;;;;30.75;20.05;;;10.10;99.90;;;;;;5026924;28;20108;-76
2024/03/31 02:19:35;;;;;;;32.05;21.27;;;10.10;99.90;;;;;;5028273;28;20487;-75
2024/03/31 02:22:00;;;;;;;27.95;17.83;;;10.10;99.90;;;;;;5027188;28;20364;-75
2024/03/31 02:24:26;;;;;;;22.63;16.27;;;10.10;99.90;;;;;;5026912;28;20087;-75
2024/03/31 02:26:52;;;;;;;26.38;18.38;;;10.10;99.90;;;;;;5028188;28;22867;-75
2024/03/31 02:29:18;;;;;;;29.65;19.27;;;10.00;99.90;;;;;;5026970;28;20033;-75
2024/03/31 02:31:44;;;;;;;29.48;19.50;;;10.10;99.90;;;;;;5028306;28;20096;-75
2024/03/31 02:34:10;;;;;;;32.95;21.70;;;10.10;99.90;;;;;;5030846;28;20116;-76
2024/03/31 02:36:35;;;;;;;33.85;20.90;;;10.10;99.90;;;;;;5033473;28;20030;-77
2024/03/31 02:39:02;;;;;;;38.92;24.58;;;10.10;99.90;;;;;;5033610;28;20474;-75
2024/03/31 02:41:27;;;;;;;34.35;23.48;;;10.20;99.90;;;;;;5033817;28;20108;-76
2024/03/31 02:43:53;;;;;;;44.15;28.58;;;10.10;99.90;;;;;;5033700;28;20116;-77
2024/03/31 02:46:19;;;;;;;41.88;27.25;;;10.20;99.90;;;;;;5033292;28;20039;-75
2024/03/31 02:48:44;;;;;;;50.22;30.58;;;10.20;99.90;;;;;;5033392;28;20026;-77
2024/03/31 02:51:10;;;;;;;49.03;32.55;;;10.20;99.90;;;;;;5033514;28;20033;-77
2024/03/31 02:53:36;;;;;;;46.15;31.98;;;10.30;99.90;;;;;;5033444;28;20022;-78
2024/03/31 02:56:02;;;;;;;54.15;38.03;;;10.20;99.90;;;;;;5033390;28;20487;-78
2024/03/31 02:58:27;;;;;;;47.20;34.15;;;10.20;99.90;;;;;;5033743;28;20482;-77
2024/03/31 03:01:05;;;;;;;58.03;38.25;;;10.30;99.90;;;;;;5032991;28;20030;-77
2024/03/31 03:03:31;;;;;;;60.05;39.88;;;10.40;99.90;;;;;;5032974;28;20041;-76
2024/03/31 03:05:57;;;;;;;59.10;40.55;;;10.40;99.90;;;;;;5031986;28;20025;-76
2024/03/31 03:08:23;;;;;;;59.05;38.88;;;10.40;99.90;;;;;;5032975;28;20471;-74
2024/03/31 03:10:56;;;;;;;53.55;37.15;;;10.40;99.90;;;;;;5033401;28;20025;-77
2024/03/31 03:13:22;;;;;;;66.43;44.88;;;10.40;99.90;;;;;;5033087;28;20029;-76
2024/03/31 03:15:49;;;;;;;58.97;37.53;;;10.40;99.90;;;;;;5033453;28;20018;-76
2024/03/31 03:18:16;;;;;;;57.22;39.10;;;10.40;99.90;;;;;;5032543;28;20030;-75
2024/03/31 03:20:42;;;;;;;63.00;45.17;;;10.40;99.90;;;;;;5025664;28;20052;-77
2024/03/31 03:23:07;;;;;;;60.83;44.20;;;10.50;99.90;;;;;;5013074;28;20056;-77
2024/03/31 03:25:34;;;;;;;65.03;46.15;;;10.50;99.90;;;;;;5013237;28;20542;-78
2024/03/31 03:27:59;;;;;;;64.53;45.53;;;10.50;99.90;;;;;;5019669;28;20025;-76
2024/03/31 03:30:25;;;;;;;61.72;43.83;;;10.50;99.90;;;;;;5031770;28;20041;-74
2024/03/31 03:32:51;;;;;;;79.38;54.08;;;10.60;99.90;;;;;;5031404;28;20497;-73
2024/03/31 03:35:17;;;;;;;69.50;50.22;;;10.60;99.90;;;;;;5032843;28;20022;-73
2024/03/31 03:37:43;;;;;;;78.38;54.40;;;10.60;99.90;;;;;;5032723;28;20402;-72
2024/03/31 03:40:09;;;;;;;82.22;56.40;;;10.60;99.90;;;;;;5032795;28;20032;-72
2024/03/31 03:42:35;;;;;;;83.28;58.00;;;10.60;99.90;;;;;;5032773;28;20041;-73
2024/03/31 03:45:00;;;;;;;77.45;50.53;;;10.60;99.90;;;;;;5031960;28;20075;-73
2024/03/31 03:47:26;;;;;;;83.00;60.72;;;10.60;99.90;;;;;;5043335;28;20371;-73
2024/03/31 03:49:52;;;;;;;87.50;62.75;;;10.70;99.90;;;;;;5052575;28;20036;-72
2024/03/31 03:52:20;;;;;;;89.90;62.33;;;10.70;99.90;;;;;;5052549;28;20359;-72
2024/03/31 03:54:46;;;;;;;83.45;57.65;;;10.60;99.90;;;;;;5052570;28;20028;-73
2024/03/31 03:57:11;;;;;;;85.18;57.90;;;10.60;99.90;;;;;;5052387;28;20029;-73
2024/03/31 03:59:37;;;;;;;85.90;57.72;;;10.60;99.90;;;;;;5052627;28;20032;-73
2024/03/31 04:02:03;;;;;;;86.38;58.67;;;10.60;99.90;;;;;;5052207;28;20106;-72
2024/03/31 04:04:29;;;;;;;86.93;60.88;;;10.60;99.90;;;;;;5052073;28;20497;-74
2024/03/31 04:06:54;;;;;;;88.85;64.80;;;10.70;99.90;;;;;;5052303;28;20025;-72
2024/03/31 04:09:20;;;;;;;98.93;69.28;;;10.70;99.90;;;;;;5052444;28;20363;-72
2024/03/31 04:11:46;;;;;;;95.97;64.38;;;10.60;99.90;;;;;;5052484;28;20047;-73
2024/03/31 04:14:11;;;;;;;103.97;68.25;;;10.60;99.90;;;;;;5052683;28;20021;-73
2024/03/31 04:16:37;;;;;;;100.18;66.50;;;10.60;99.90;;;;;;5052101;28;20082;-75
2024/03/31 04:19:03;;;;;;;111.75;71.32;;;10.70;99.90;;;;;;5052308;28;20385;-72
2024/03/31 04:21:28;;;;;;;91.10;67.63;;;10.60;99.90;;;;;;5051951;28;20497;-73
2024/03/31 04:23:54;;;;;;;91.93;66.50;;;10.60;99.90;;;;;;5052115;28;20432;-73
2024/03/31 04:26:25;;;;;;;87.45;63.10;;;10.70;99.90;;;;;;5050629;28;20052;-73
2024/03/31 04:28:52;;;;;;;92.57;63.05;;;10.70;99.90;;;;;;5050963;28;20021;-73
2024/03/31 04:31:18;;;;;;;99.85;67.80;;;10.70;99.90;;;;;;5051683;28;20021;-73
2024/03/31 04:33:44;;;;;;;97.75;67.13;;;10.70;99.90;;;;;;5051877;28;20021;-73
2024/03/31 04:36:13;;;;;;;99.18;66.35;;;10.70;99.90;;;;;;5051796;28;20108;-73
2024/03/31 04:38:39;;;;;;;98.68;71.38;;;10.60;99.90;;;;;;5052155;28;20029;-73
2024/03/31 04:41:06;;;;;;;95.00;65.65;;;10.60;99.90;;;;;;5049833;28;20029;-73
2024/03/31 04:43:32;;;;;;;108.18;73.90;;;10.70;99.90;;;;;;5052033;28;20385;-73
2024/03/31 04:46:08;;;;;;;105.68;75.60;;;10.60;99.90;;;;;;5051525;28;20025;-75
2024/03/31 04:48:36;;;;;;;123.05;77.70;;;10.60;99.90;;;;;;5052055;28;20104;-73
2024/03/31 04:51:06;;;;;;;100.70;68.57;;;10.70;99.90;;;;;;5052029;28;20025;-73
2024/03/31 04:53:38;;;;;;;96.75;68.80;;;10.70;99.90;;;;;;5052186;28;20064;-73
2024/03/31 04:56:05;;;;;;;107.53;73.50;;;10.70;99.90;;;;;;5051958;28;20033;-73
2024/03/31 04:58:31;;;;;;;100.72;68.65;;;10.70;99.90;;;;;;5051865;28;20394;-73
2024/03/31 05:00:57;;;;;;;105.70;71.90;;;10.80;99.90;;;;;;5043748;28;20018;-73
2024/03/31 05:03:24;;;;;;;105.07;71.78;;;10.70;99.90;;;;;;5030291;28;20044;-74
2024/03/31 05:05:50;;;;;;;102.10;70.30;;;10.70;99.90;;;;;;5031320;28;20138;-73
2024/03/31 05:08:16;;;;;;;121.03;76.63;;;10.70;99.90;;;;;;5031873;28;20132;-73
2024/03/31 05:11:01;;;;;;;112.90;77.55;;;10.60;99.90;;;;;;5031120;28;20541;-73
2024/03/31 05:13:27;;;;;;;109.47;74.70;;;10.60;99.90;;;;;;5030371;28;20087;-74
2024/03/31 05:16:08;;;;;;;106.70;73.90;;;10.60;99.90;;;;;;5031896;28;20021;-73
2024/03/31 05:18:34;;;;;;;120.03;76.78;;;10.60;99.90;;;;;;5031999;28;20064;-74
2024/03/31 05:21:03;;;;;;;117.22;78.22;;;10.60;99.90;;;;;;5031859;28;20053;-74
2024/03/31 05:23:28;;;;;;;111.97;76.68;;;10.60;99.90;;;;;;5031613;28;20037;-73
2024/03/31 05:25:58;;;;;;;105.75;74.80;;;10.60;99.90;;;;;;5033560;28;20361;-74
2024/03/31 05:28:23;;;;;;;111.00;76.03;;;10.60;99.90;;;;;;5033688;28;20060;-75
2024/03/31 05:30:50;;;;;;;101.32;73.05;;;10.60;99.90;;;;;;5035417;28;20431;-73
2024/03/31 05:33:16;;;;;;;114.65;76.65;;;10.50;99.90;;;;;;5033950;28;20021;-74
2024/03/31 05:35:43;;;;;;;114.72;74.53;;;10.60;99.90;;;;;;5034827;28;20026;-74
2024/03/31 05:38:09;;;;;;;100.78;67.25;;;10.60;99.90;;;;;;5033658;28;20438;-74
2024/03/31 05:40:38;;;;;;;115.00;74.97;;;10.50;99.90;;;;;;5035132;28;20022;-74
2024/03/31 05:43:05;;;;;;;101.20;74.97;;;10.60;99.90;;;;;;5033234;28;20029;-76
2024/03/31 05:45:32;;;;;;;103.95;72.40;;;10.60;99.90;;;;;;5033747;28;20119;-75
2024/03/31 05:47:57;;;;;;;97.75;68.22;;;10.60;99.90;;;;;;5050042;28;20033;-74
2024/03/31 05:50:23;;;;;;;96.50;68.75;;;10.60;99.90;;;;;;5054917;28;20101;-76
2024/03/31 05:52:49;;;;;;;119.55;74.25;;;10.60;99.90;;;;;;5054945;28;20112;-74
2024/03/31 05:55:16;;;;;;;102.30;69.07;;;10.60;99.90;;;;;;5054722;28;20052;-75
2024/03/31 05:57:41;;;;;;;90.18;61.20;;;10.60;99.90;;;;;;5054240;28;20025;-74
2024/03/31 06:00:07;;;;;;;91.50;62.40;;;10.60;99.90;;;;;;5054856;28;20459;-74
2024/03/31 06:02:33;;;;;;;98.10;64.50;;;10.70;99.90;;;;;;5054296;28;20029;-74
2024/03/31 06:04:59;;;;;;;85.10;60.33;;;10.70;99.90;;;;;;5035572;28;20033;-75
2024/03/31 06:07:25;;;;;;;97.20;63.25;;;10.70;99.90;;;;;;5031900;28;20496;-74
2024/03/31 06:09:51;;;;;;;93.57;63.10;;;10.70;99.90;;;;;;5034549;28;20018;-75
2024/03/31 06:12:16;;;;;;;90.28;60.72;;;10.60;99.90;;;;;;5032915;28;20032;-75
2024/03/31 06:14:42;;;;;;;88.47;58.53;;;10.60;99.90;;;;;;5033995;28;20028;-74
2024/03/31 06:17:08;;;;;;;79.55;56.75;;;10.60;99.90;;;;;;5034505;28;20033;-75
2024/03/31 06:19:33;;;;;;;81.47;56.90;;;10.60;99.90;;;;;;5032870;28;20040;-73
2024/03/31 06:21:59;;;;;;;89.57;60.88;;;10.70;99.90;;;;;;5033673;28;20018;-74
2024/03/31 06:24:25;;;;;;;93.13;65.97;;;10.60;99.90;;;;;;5034013;28;20033;-75
2024/03/31 06:26:50;;;;;;;88.32;61.83;;;10.60;99.90;;;;;;5033643;28;20455;-75
2024/03/31 06:29:16;;;;;;;91.82;62.70;;;10.70;99.90;;;;;;5032705;28;20033;-75
2024/03/31 06:31:41;;;;;;;89.22;64.50;;;10.60;99.90;;;;;;5034286;28;20593;-75
2024/03/31 06:34:07;;;;;;;86.95;57.92;;;10.70;99.90;;;;;;5031964;28;20532;-74
2024/03/31 06:36:33;;;;;;;80.35;55.47;;;10.70;99.90;;;;;;5033098;28;20382;-75
2024/03/31 06:38:58;;;;;;;80.75;57.85;;;10.80;99.90;;;;;;5033539;28;20410;-75
2024/03/31 06:41:24;;;;;;;80.93;55.63;;;10.90;99.90;;;;;;5033490;28;20048;-74
2024/03/31 06:43:50;;;;;;;76.38;53.95;;;10.80;99.90;;;;;;5033132;28;20032;-76
2024/03/31 06:46:16;;;;;;;73.18;52.88;;;11.00;99.90;;;;;;5034071;28;20080;-75
2024/03/31 06:48:41;;;;;;;73.20;49.38;;;11.00;99.90;;;;;;5035992;28;20100;-75
2024/03/31 06:51:07;;;;;;;68.53;50.05;;;10.90;99.90;;;;;;5033918;28;20108;-76
2024/03/31 06:53:33;;;;;;;70.18;49.20;;;10.80;99.90;;;;;;5032458;28;20021;-76
2024/03/31 06:55:58;;;;;;;59.97;42.75;;;10.90;99.90;;;;;;5031802;28;20262;-76
2024/03/31 06:58:24;;;;;;;64.15;45.22;;;10.90;99.90;;;;;;5033274;28;20838;-74
2024/03/31 07:00:59;;;;;;;63.45;43.35;;;10.90;99.90;;;;;;5026951;28;20446;-76
2024/03/31 07:03:25;;;;;;;55.25;40.38;;;11.00;99.90;;;;;;5031059;28;20040;-75
2024/03/31 07:05:51;;;;;;;61.08;40.22;;;11.10;99.90;;;;;;5033317;28;20033;-74
2024/03/31 07:08:17;;;;;;;67.32;45.40;;;11.10;99.90;;;;;;5031245;28;20028;-75
2024/03/31 07:10:43;;;;;;;59.35;41.83;;;11.10;99.90;;;;;;5021098;28;20101;-75
2024/03/31 07:13:09;;;;;;;59.30;38.20;;;11.30;99.90;;;;;;5021727;28;20017;-76
2024/03/31 07:15:35;;;;;;;45.75;31.48;;;11.30;99.90;;;;;;5032315;28;20068;-76
2024/03/31 07:18:06;;;;;;;52.70;34.38;;;11.20;99.90;;;;;;5027075;28;20025;-77
2024/03/31 07:20:33;;;;;;;47.58;32.50;;;11.40;99.90;;;;;;5033014;28;20029;-76
2024/03/31 07:22:59;;;;;;;42.80;27.38;;;11.40;99.90;;;;;;5026824;28;20360;-76
2024/03/31 07:25:24;;;;;;;42.88;27.15;;;11.40;99.90;;;;;;5029063;28;20029;-76
2024/03/31 07:27:50;;;;;;;49.60;31.92;;;11.50;99.90;;;;;;5023035;28;20108;-76
2024/03/31 07:30:16;;;;;;;42.13;29.17;;;11.50;99.90;;;;;;5032092;28;20026;-77
2024/03/31 07:32:42;;;;;;;38.40;26.17;;;11.60;99.90;;;;;;5032276;28;20022;-76
2024/03/31 07:35:07;;;;;;;35.25;23.80;;;11.70;99.90;;;;;;5032579;28;20028;-76
2024/03/31 07:37:33;;;;;;;42.05;24.02;;;11.70;99.90;;;;;;5031608;28;20105;-76
2024/03/31 07:39:59;;;;;;;38.40;22.10;;;11.70;99.90;;;;;;5031997;28;20029;-76
2024/03/31 07:42:24;;;;;;;29.70;21.33;;;11.80;99.90;;;;;;5032154;28;20364;-75
2024/03/31 07:44:50;;;;;;;30.02;19.80;;;11.80;99.90;;;;;;5027742;28;20478;-77
2024/03/31 07:47:16;;;;;;;29.77;19.63;;;12.00;99.90;;;;;;5026694;28;20479;-77
2024/03/31 07:49:41;;;;;;;27.63;19.63;;;12.00;99.90;;;;;;5030723;28;20116;-77
2024/03/31 07:52:07;;;;;;;25.73;18.38;;;11.90;99.90;;;;;;5028486;28;20021;-77
2024/03/31 07:54:33;;;;;;;28.00;16.42;;;12.00;99.90;;;;;;5032014;28;20486;-77
2024/03/31 07:56:58;;;;;;;26.23;16.60;;;12.00;99.90;;;;;;5032131;28;20422;-77
2024/03/31 07:59:24;;;;;;;26.13;13.45;;;12.20;99.90;;;;;;5031128;28;20441;-76
2024/03/31 08:01:50;;;;;;;22.60;12.27;;;12.20;99.90;;;;;;5031952;28;20025;-78
2024/03/31 08:04:15;;;;;;;21.48;11.70;;;12.40;99.90;;;;;;5025360;28;20042;-77
2024/03/31 08:06:41;;;;;;;18.67;11.45;;;12.40;99.90;;;;;;5028371;28;20029;-76
2024/03/31 08:09:08;;;;;;;19.98;10.55;;;12.40;99.90;;;;;;5031967;28;20032;-78
2024/03/31 08:11:33;;;;;;;19.58;10.57;;;12.40;99.90;;;;;;5030776;28;20437;-77
2024/03/31 08:13:59;;;;;;;17.10;8.65;;;12.50;99.90;;;;;;5032502;28;20025;-77
2024/03/31 08:16:24;;;;;;;18.55;8.75;;;12.60;99.90;;;;;;5031431;28;20076;-77
2024/03/31 08:18:50;;;;;;;25.00;7.97;;;12.80;99.90;;;;;;5032239;28;20021;-77
2024/03/31 08:21:16;;;;;;;14.93;7.22;;;13.00;99.90;;;;;;5030034;28;20463;-77
2024/03/31 08:23:41;;;;;;;14.98;7.32;;;13.10;99.90;;;;;;5031372;28;20064;-76
2024/03/31 08:26:07;;;;;;;12.52;5.57;;;13.20;99.90;;;;;;5026374;28;20385;-77
2024/03/31 08:28:33;;;;;;;16.52;5.13;;;13.20;99.90;;;;;;5029629;28;20033;-78
2024/03/31 08:30:58;;;;;;;8.23;4.22;;;13.30;99.90;;;;;;5022806;28;20026;-78
2024/03/31 08:33:24;;;;;;;12.70;3.83;;;13.20;99.90;;;;;;5025626;28;20532;-77
2024/03/31 08:35:51;;;;;;;9.15;4.00;;;13.20;99.90;;;;;;5029386;28;20386;-77
2024/03/31 08:38:17;;;;;;;9.70;5.07;;;13.30;99.90;;;;;;5020941;28;20014;-77
2024/03/31 08:40:48;;;;;;;12.82;3.95;;;13.30;99.90;;;;;;5029783;28;21571;-78
2024/03/31 08:43:19;;;;;;;11.65;3.63;;;13.50;99.90;;;;;;5029446;28;20494;-75
2024/03/31 08:45:46;;;;;;;14.73;3.90;;;13.60;99.90;;;;;;5030770;28;20585;-77
2024/03/31 08:48:15;;;;;;;9.45;3.42;;;13.80;99.90;;;;;;5035094;28;20030;-76
2024/03/31 08:50:43;;;;;;;10.10;2.70;;;14.00;99.90;;;;;;5030593;28;20036;-76
2024/03/31 08:53:09;;;;;;;12.52;3.40;;;14.10;99.90;;;;;;5031220;28;20045;-77
2024/03/31 08:55:35;;;;;;;13.20;2.75;;;14.40;99.90;;;;;;5030811;28;20033;-77
2024/03/31 08:58:01;;;;;;;10.32;2.95;;;14.40;99.90;;;;;;5031904;28;20045;-80
2024/03/31 09:00:27;;;;;;;9.68;3.03;;;14.60;99.90;;;;;;5033148;28;20025;-79
2024/03/31 09:02:53;;;;;;;13.90;2.72;;;14.70;99.90;;;;;;5035298;28;20037;-80
2024/03/31 09:05:18;;;;;;;13.43;2.85;;;14.60;99.90;;;;;;5033932;28;20021;-80
2024/03/31 09:07:44;;;;;;;11.68;2.75;;;14.70;99.90;;;;;;5035258;28;20029;-76
2024/03/31 09:10:10;;;;;;;12.13;3.05;;;14.80;99.90;;;;;;5034350;28;20478;-77
2024/03/31 09:12:38;;;;;;;10.80;2.70;;;15.00;99.90;;;;;;5033247;28;20492;-79
2024/03/31 09:15:07;;;;;;;9.88;2.38;;;15.20;99.90;;;;;;5034593;28;20022;-76
2024/03/31 09:17:34;;;;;;;10.10;2.72;;;15.20;99.90;;;;;;5033440;28;20048;-79
2024/03/31 09:20:02;;;;;;;10.77;2.20;;;15.30;99.90;;;;;;5035035;28;20026;-79
2024/03/31 09:22:28;;;;;;;11.45;3.00;;;15.60;99.90;;;;;;5034207;28;20491;-79
2024/03/31 09:24:54;;;;;;;10.32;2.40;;;15.60;99.90;;;;;;5035182;28;20035;-80
2024/03/31 09:27:21;;;;;;;11.52;3.13;;;15.70;99.90;;;;;;5034610;28;20100;-80
2024/03/31 09:29:47;;;;;;;17.38;3.15;;;15.70;99.90;;;;;;5033221;28;20371;-79
2024/03/31 09:32:17;;;;;;;12.75;2.95;;;15.60;99.90;;;;;;5032031;28;20459;-79
2024/03/31 09:34:48;;;;;;;9.27;2.90;;;15.60;99.90;;;;;;5033956;28;20029;-79
2024/03/31 09:37:17;;;;;;;11.02;2.33;;;15.70;99.90;;;;;;5024529;28;20033;-79
2024/03/31 09:39:46;;;;;;;13.93;3.03;;;15.90;99.90;;;;;;5032136;28;20032;-80
2024/03/31 09:42:11;;;;;;;11.77;2.15;;;16.00;99.90;;;;;;5026688;28;20475;-79
2024/03/31 09:44:41;;;;;;;12.27;2.38;;;16.40;99.90;;;;;;5031860;28;20083;-80
2024/03/31 09:47:37;;;;;;;14.55;2.42;;;16.50;99.90;;;;;;5039158;28;20033;-80
2024/03/31 09:50:15;;;;;;;6.10;1.95;;;16.80;99.90;;;;;;5011744;28;20206;-80
2024/03/31 09:52:44;;;;;;;10.20;1.88;;;16.60;99.90;;;;;;5019468;28;20112;-80
2024/03/31 09:55:13;;;;;;;10.07;2.00;;;16.90;99.90;;;;;;5025875;28;20049;-78
2024/03/31 09:57:44;;;;;;;7.38;2.17;;;17.10;99.90;;;;;;5026992;28;20021;-80
2024/03/31 10:00:14;;;;;;;7.60;1.70;;;17.00;99.90;;;;;;5027411;28;20025;-78
2024/03/31 10:02:45;;;;;;;13.02;1.60;;;16.80;99.90;;;;;;5027298;28;20029;-79
2024/03/31 10:05:14;;;;;;;9.10;1.80;;;16.90;99.90;;;;;;5027667;28;20124;-78
2024/03/31 10:07:40;;;;;;;8.75;1.80;;;16.70;99.90;;;;;;5027810;28;20017;-79
2024/03/31 10:10:08;;;;;;;8.38;1.80;;;16.70;99.90;;;;;;5025701;28;20025;-79
2024/03/31 10:12:34;;;;;;;10.52;2.33;;;16.80;99.90;;;;;;5027136;28;20017;-79
2024/03/31 10:15:02;;;;;;;7.60;1.83;;;17.10;99.90;;;;;;5026230;28;20371;-79
2024/03/31 10:17:29;;;;;;;7.38;1.77;;;17.40;99.90;;;;;;5027701;28;20207;-79
2024/03/31 10:19:57;;;;;;;9.05;1.77;;;17.70;99.90;;;;;;5025116;28;20458;-79
2024/03/31 10:22:24;;;;;;;10.13;2.95;;;17.90;99.90;;;;;;5026754;28;20028;-78
2024/03/31 10:24:52;;;;;;;15.25;2.53;;;18.10;99.90;;;;;;5026285;28;20036;-79
2024/03/31 10:27:19;;;;;;;15.55;1.92;;;18.20;99.90;;;;;;5025923;28;20063;-79
2024/03/31 10:29:45;;;;;;;5.78;1.80;;;18.20;99.90;;;;;;5025898;28;20501;-79
2024/03/31 10:32:11;;;;;;;9.98;2.13;;;18.40;99.90;;;;;;5026203;28;20026;-80
2024/03/31 10:34:38;;;;;;;10.70;1.70;;;18.50;99.90;;;;;;5024753;28;20026;-80
2024/03/31 10:37:13;;;;;;;8.07;1.73;;;18.70;99.90;;;;;;5025416;28;20041;-79
2024/03/31 10:39:43;;;;;;;7.43;2.08;;;18.50;99.90;;;;;;5026973;28;20479;-81
2024/03/31 10:42:09;;;;;;;8.05;1.73;;;18.20;99.90;;;;;;5024510;28;20033;-80
2024/03/31 10:44:35;;;;;;;10.43;2.55;;;18.10;99.90;;;;;;5026641;28;22281;-82
2024/03/31 10:47:01;;;;;;;12.13;2.53;;;18.00;99.90;;;;;;5026514;28;20043;-83
2024/03/31 10:49:39;;;;;;;16.05;2.40;;;18.00;99.90;;;;;;5026683;28;20025;-84
2024/03/31 10:52:11;;;;;;;10.48;2.08;;;17.90;99.90;;;;;;5026812;28;20083;-83
2024/03/31 10:54:37;;;;;;;10.53;1.83;;;17.90;99.90;;;;;;5026948;28;20056;-84
2024/03/31 10:57:08;;;;;;;13.88;2.30;;;17.80;99.90;;;;;;5025630;28;20500;-83
2024/03/31 10:59:36;;;;;;;14.73;1.65;;;17.70;99.90;;;;;;5025658;28;20525;-84
2024/03/31 11:02:14;;;;;;;10.63;2.20;;;17.80;99.90;;;;;;5023985;28;20025;-86
2024/03/31 11:04:45;;;;;;;12.93;2.15;;;17.80;99.90;;;;;;5025418;28;20505;-84
2024/03/31 11:07:13;;;;;;;11.27;1.88;;;17.60;99.90;;;;;;5026030;28;20026;-84
2024/03/31 11:09:40;;;;;;;8.02;2.00;;;17.60;99.90;;;;;;5025062;28;20026;-85
2024/03/31 11:12:12;;;;;;;14.15;2.30;;;17.50;99.90;;;;;;5025347;28;20033;-82
2024/03/31 11:14:38;;;;;;;9.40;2.45;;;17.60;99.90;;;;;;5024841;28;20037;-81
2024/03/31 11:17:04;;;;;;;13.10;2.30;;;17.50;99.90;;;;;;5026322;28;20021;-81
2024/03/31 11:19:31;;;;;;;9.25;2.10;;;17.60;99.90;;;;;;5026271;28;20040;-83
2024/03/31 11:22:01;;;;;;;11.07;2.45;;;17.60;99.90;;;;;;5024302;28;20025;-83
2024/03/31 11:24:31;;;;;;;12.07;2.60;;;17.60;99.90;;;;;;5025846;28;20120;-83
2024/03/31 11:26:57;;;;;;;11.98;2.47;;;17.40;99.90;;;;;;5024907;28;20024;-83
2024/03/31 11:29:23;;;;;;;8.48;2.25;;;17.40;99.90;;;;;;5025148;28;20026;-84
2024/03/31 11:31:50;;;;;;;10.35;1.90;;;17.50;99.90;;;;;;5024706;28;20022;-85
2024/03/31 11:34:17;;;;;;;12.15;1.95;;;17.50;99.90;;;;;;5026116;28;20025;-84
2024/03/31 11:36:43;;;;;;;12.30;2.70;;;17.60;99.90;;;;;;5022229;28;20079;-84
2024/03/31 11:39:09;;;;;;;12.43;2.55;;;17.60;99.90;;;;;;5020504;28;20136;-83
2024/03/31 11:41:35;;;;;;;10.02;1.80;;;17.50;99.90;;;;;;5024373;28;20104;-83
2024/03/31 11:44:01;;;;;;;10.75;2.08;;;17.50;99.90;;;;;;5022896;28;20121;-83
2024/03/31 11:46:27;;;;;;;10.60;1.90;;;17.50;99.90;;;;;;5023260;28;20120;-84
2024/03/31 11:48:53;;;;;;;8.73;1.50;;;17.50;99.90;;;;;;5023402;28;20042;-82
2024/03/31 11:51:19;;;;;;;7.47;1.58;;;17.50;99.90;;;;;;5022827;28;20044;-84
2024/03/31 11:53:45;;;;;;;7.15;1.63;;;17.50;99.90;;;;;;5023428;28;20090;-82
2024/03/31 11:56:11;;;;;;;6.93;1.50;;;17.40;99.90;;;;;;5023549;28;20029;-83
2024/03/31 11:58:37;;;;;;;7.18;1.45;;;17.40;99.90;;;;;;5023332;28;20067;-82
2024/03/31 12:01:03;;;;;;;8.88;2.00;;;17.40;99.90;;;;;;5024686;28;20025;-82
2024/03/31 12:03:29;;;;;;;12.23;2.08;;;17.20;99.90;;;;;;5024282;28;20091;-82
2024/03/31 12:05:55;;;;;;;6.72;1.80;;;17.20;99.90;;;;;;5023969;28;20022;-82
2024/03/31 12:08:21;;;;;;;10.70;2.28;;;17.10;99.90;;;;;;5023271;28;20064;-81
2024/03/31 12:10:48;;;;;;;8.27;1.73;;;17.00;99.90;;;;;;5025134;28;21498;-82
2024/03/31 12:13:16;;;;;;;10.82;2.05;;;17.00;99.90;;;;;;5023441;28;20108;-82
2024/03/31 12:15:42;;;;;;;12.23;1.77;;;17.10;99.90;;;;;;5025109;28;20037;-82
2024/03/31 12:18:11;;;;;;;9.38;1.90;;;17.10;99.90;;;;;;5022835;28;20025;-81
2024/03/31 12:20:37;;;;;;;9.65;1.95;;;17.20;99.90;;;;;;5022688;28;20057;-81
2024/03/31 12:23:07;;;;;;;14.95;2.22;;;17.10;99.90;;;;;;5023071;28;20517;-82
2024/03/31 12:25:35;;;;;;;7.13;1.52;;;17.20;99.90;;;;;;5023671;28;20018;-82
2024/03/31 12:28:01;;;;;;;10.90;2.65;;;17.30;99.90;;;;;;5025141;28;20055;-82